Time;durP1;ratioP1;P1;durP2;ratioP2;P2;SDS_P1;SDS_P2;PMS_P1;PMS_P2;Temp;Humidity;BMP_temperature;BMP_pressure;BME280_temperature;BME280_humidity;BME280_pressure;Samples;Min_cycle;Max_cycle;Signal;HPM_P1;HPM_P2
2023/07/24 00:01:45;;;;;;;12.30;5.95;;;16.90;99.90;;;;;;4975088;28;20473;-85
2023/07/24 00:04:11;;;;;;;10.60;6.65;;;16.90;99.90;;;;;;4976739;28;20049;-85
2023/07/24 00:06:37;;;;;;;11.23;6.32;;;16.80;99.90;;;;;;4976368;28;20057;-85
2023/07/24 00:09:02;;;;;;;13.23;7.07;;;16.90;99.90;;;;;;5009276;28;20042;-85
2023/07/24 00:11:28;;;;;;;11.70;6.85;;;16.80;99.90;;;;;;4991998;28;20068;-85
2023/07/24 00:13:54;;;;;;;14.00;6.47;;;16.80;99.90;;;;;;4992153;28;20425;-85
2023/07/24 00:16:21;;;;;;;13.27;6.90;;;16.70;99.90;;;;;;4991004;28;20136;-85
2023/07/24 00:18:46;;;;;;;10.70;7.05;;;16.70;99.90;;;;;;4975882;28;20095;-84
2023/07/24 00:21:13;;;;;;;14.38;7.25;;;16.70;99.90;;;;;;4992207;28;20042;-85
2023/07/24 00:23:39;;;;;;;16.00;7.90;;;16.60;99.90;;;;;;4991134;28;20051;-85
2023/07/24 00:26:05;;;;;;;13.77;6.88;;;16.60;99.90;;;;;;4975248;28;20049;-85
2023/07/24 00:28:30;;;;;;;16.15;6.97;;;16.60;99.90;;;;;;4992357;28;20042;-85
2023/07/24 00:30:56;;;;;;;12.68;6.93;;;16.60;99.90;;;;;;4990735;28;20042;-85
2023/07/24 00:33:22;;;;;;;14.57;6.88;;;16.50;99.90;;;;;;4991719;28;20136;-85
2023/07/24 00:35:48;;;;;;;15.00;7.13;;;16.50;99.90;;;;;;4975721;28;20052;-85
2023/07/24 00:38:13;;;;;;;10.27;6.07;;;16.50;99.90;;;;;;4974574;28;20117;-85
2023/07/24 00:40:39;;;;;;;11.88;6.78;;;16.50;99.90;;;;;;4991341;28;20046;-85
2023/07/24 00:43:05;;;;;;;15.70;6.90;;;16.50;99.90;;;;;;4975325;28;20473;-85
2023/07/24 00:45:30;;;;;;;14.57;6.65;;;16.50;99.90;;;;;;4974728;28;20050;-85
2023/07/24 00:47:58;;;;;;;14.18;6.85;;;16.40;99.90;;;;;;5009414;28;20042;-85
2023/07/24 00:50:25;;;;;;;11.10;7.30;;;16.40;99.90;;;;;;4974352;28;20099;-85
2023/07/24 00:52:51;;;;;;;13.35;7.43;;;16.40;99.90;;;;;;5009046;28;20049;-85
2023/07/24 00:55:16;;;;;;;14.85;7.65;;;16.40;99.90;;;;;;4992205;28;20057;-84
2023/07/24 00:57:43;;;;;;;13.65;7.60;;;16.40;99.90;;;;;;4989374;28;20509;-84
2023/07/24 01:00:10;;;;;;;14.93;7.70;;;16.40;99.90;;;;;;4991910;28;20053;-85
2023/07/24 01:02:37;;;;;;;13.20;7.45;;;16.40;99.90;;;;;;4989999;28;20037;-86
2023/07/24 01:05:03;;;;;;;14.98;6.90;;;16.40;99.90;;;;;;5008712;28;20494;-85
2023/07/24 01:07:29;;;;;;;17.63;6.90;;;16.40;99.90;;;;;;4991145;28;20121;-85
2023/07/24 01:09:55;;;;;;;14.20;7.85;;;16.50;99.90;;;;;;4975176;28;20050;-85
2023/07/24 01:13:12;;;;;;;15.23;7.00;;;16.40;99.90;;;;;;4973685;28;20042;-86
2023/07/24 01:15:44;;;;;;;13.52;7.63;;;16.40;99.90;;;;;;4989401;28;20679;-85
2023/07/24 01:18:13;;;;;;;18.00;7.82;;;16.40;99.90;;;;;;4974388;28;20073;-85
2023/07/24 01:20:51;;;;;;;14.43;8.50;;;16.40;99.90;;;;;;4990445;28;20115;-85
2023/07/24 01:23:23;;;;;;;12.98;7.38;;;16.40;99.90;;;;;;4990972;28;20046;-85
2023/07/24 01:25:53;;;;;;;15.98;8.60;;;16.40;99.90;;;;;;4989759;28;20046;-85
2023/07/24 01:28:19;;;;;;;18.25;9.23;;;16.40;99.90;;;;;;4974473;28;20541;-85
2023/07/24 01:30:45;;;;;;;16.00;8.55;;;16.40;99.90;;;;;;4990568;28;20137;-85
2023/07/24 01:33:10;;;;;;;17.05;8.20;;;16.30;99.90;;;;;;4990474;28;20068;-85
2023/07/24 01:35:38;;;;;;;15.30;8.25;;;16.30;99.90;;;;;;4974542;28;20124;-85
2023/07/24 01:38:04;;;;;;;18.45;9.02;;;16.30;99.90;;;;;;4974945;28;20045;-85
2023/07/24 01:40:31;;;;;;;17.92;8.70;;;16.30;99.90;;;;;;4989821;28;20050;-85
2023/07/24 01:42:59;;;;;;;20.88;8.95;;;16.20;99.90;;;;;;4974260;28;20057;-85
2023/07/24 01:45:25;;;;;;;14.38;9.70;;;16.20;99.90;;;;;;4973553;28;20121;-85
2023/07/24 01:47:50;;;;;;;17.55;10.10;;;16.20;99.90;;;;;;4990365;28;20133;-85
2023/07/24 01:50:16;;;;;;;21.75;10.45;;;16.20;99.90;;;;;;5008357;28;20042;-84
2023/07/24 01:52:42;;;;;;;14.85;10.15;;;16.10;99.90;;;;;;4989908;28;20080;-84
2023/07/24 01:55:09;;;;;;;16.75;10.15;;;16.10;99.90;;;;;;4989972;28;20045;-84
2023/07/24 01:57:34;;;;;;;17.30;11.20;;;16.20;99.90;;;;;;4973132;28;20054;-84
2023/07/24 02:00:00;;;;;;;17.17;10.75;;;16.10;99.90;;;;;;4990298;28;20060;-84
2023/07/24 02:02:26;;;;;;;19.48;11.13;;;16.10;99.90;;;;;;4972514;28;20081;-84
2023/07/24 02:04:51;;;;;;;17.92;11.65;;;16.10;99.90;;;;;;4990779;28;20470;-84
2023/07/24 02:07:17;;;;;;;17.30;12.75;;;16.10;99.90;;;;;;5007640;28;20045;-85
2023/07/24 02:09:43;;;;;;;18.60;12.60;;;16.10;99.90;;;;;;4973230;28;20096;-85
2023/07/24 02:12:08;;;;;;;17.63;13.82;;;16.10;99.90;;;;;;5007688;28;20111;-85
2023/07/24 02:14:34;;;;;;;19.58;13.27;;;16.20;99.90;;;;;;4972389;28;20042;-84
2023/07/24 02:17:00;;;;;;;22.33;13.75;;;16.10;99.90;;;;;;4973085;28;20049;-84
2023/07/24 02:19:25;;;;;;;19.30;14.05;;;16.20;99.90;;;;;;4990289;28;20050;-85
2023/07/24 02:21:51;;;;;;;19.70;14.43;;;16.20;99.90;;;;;;5006360;28;20036;-84
2023/07/24 02:24:17;;;;;;;20.52;15.23;;;16.30;99.90;;;;;;5008411;28;20378;-84
2023/07/24 02:26:42;;;;;;;21.75;14.38;;;16.30;99.90;;;;;;4988735;28;20458;-84
2023/07/24 02:29:08;;;;;;;21.35;14.32;;;16.30;99.90;;;;;;4989613;28;20470;-84
2023/07/24 02:31:34;;;;;;;17.77;12.60;;;16.40;99.90;;;;;;4989400;28;20105;-85
2023/07/24 02:34:00;;;;;;;17.27;12.85;;;16.30;99.90;;;;;;4973456;28;20046;-85
2023/07/24 02:36:25;;;;;;;17.42;12.18;;;16.30;99.90;;;;;;4988789;28;20124;-84
2023/07/24 02:38:51;;;;;;;14.07;11.55;;;16.40;99.90;;;;;;4989624;28;20048;-85
2023/07/24 02:41:17;;;;;;;16.73;12.18;;;16.30;99.90;;;;;;5006675;28;20497;-84
2023/07/24 02:43:42;;;;;;;17.35;12.45;;;16.30;99.90;;;;;;4988629;28;20112;-85
2023/07/24 02:46:08;;;;;;;19.20;11.80;;;16.30;99.90;;;;;;4989086;28;20132;-85
2023/07/24 02:48:35;;;;;;;19.65;12.93;;;16.30;99.90;;;;;;4990182;28;20054;-85
2023/07/24 02:51:00;;;;;;;18.33;12.73;;;16.20;99.90;;;;;;4972446;28;20085;-85
2023/07/24 02:53:26;;;;;;;16.15;12.25;;;16.20;99.90;;;;;;4973755;28;20477;-85
2023/07/24 02:55:52;;;;;;;17.70;11.63;;;16.20;99.90;;;;;;4988814;28;20096;-85
2023/07/24 02:58:17;;;;;;;19.25;12.25;;;16.20;99.90;;;;;;4988788;28;20054;-85
2023/07/24 03:00:43;;;;;;;18.90;13.32;;;16.20;99.90;;;;;;4972336;28;20073;-85
2023/07/24 03:03:09;;;;;;;21.52;12.82;;;16.20;99.90;;;;;;4989797;28;20054;-85
2023/07/24 03:05:34;;;;;;;18.45;12.48;;;16.20;99.90;;;;;;4972199;28;20056;-85
2023/07/24 03:08:00;;;;;;;15.07;10.55;;;16.30;99.90;;;;;;4973499;28;20062;-85
2023/07/24 03:10:26;;;;;;;16.38;10.40;;;16.30;99.90;;;;;;4972856;28;20113;-85
2023/07/24 03:12:52;;;;;;;17.92;10.63;;;16.30;99.90;;;;;;4988138;28;20517;-85
2023/07/24 03:15:18;;;;;;;16.92;10.73;;;16.40;99.90;;;;;;4989103;28;20054;-85
2023/07/24 03:17:44;;;;;;;15.38;9.55;;;16.40;99.90;;;;;;4972579;28;20076;-85
2023/07/24 03:20:15;;;;;;;15.45;10.13;;;16.40;99.90;;;;;;5007374;28;20082;-85
2023/07/24 03:22:42;;;;;;;16.63;10.30;;;16.50;99.90;;;;;;4972699;28;20057;-84
2023/07/24 03:25:08;;;;;;;16.05;11.18;;;16.50;99.90;;;;;;4972678;28;20041;-84
2023/07/24 03:27:34;;;;;;;17.65;12.00;;;16.50;99.90;;;;;;4975960;28;20133;-85
2023/07/24 03:29:59;;;;;;;19.52;12.68;;;16.50;99.90;;;;;;4977270;28;20126;-86
2023/07/24 03:32:25;;;;;;;17.50;11.15;;;16.50;99.90;;;;;;4975791;28;20100;-85
2023/07/24 03:34:51;;;;;;;18.60;11.20;;;16.50;99.90;;;;;;5010791;28;20108;-85
2023/07/24 03:37:17;;;;;;;14.65;10.15;;;16.50;99.90;;;;;;4977385;28;20034;-85
2023/07/24 03:39:43;;;;;;;16.13;9.45;;;16.60;99.90;;;;;;5009377;28;20481;-85
2023/07/24 03:42:12;;;;;;;16.60;9.23;;;16.60;99.90;;;;;;4976934;28;20072;-85
2023/07/24 03:44:40;;;;;;;16.00;10.02;;;16.50;99.90;;;;;;4975979;28;20038;-85
2023/07/24 03:47:06;;;;;;;17.08;9.95;;;16.60;99.90;;;;;;5009622;28;20061;-86
2023/07/24 03:49:31;;;;;;;16.48;9.25;;;16.60;99.90;;;;;;4976483;28;20046;-86
2023/07/24 03:51:57;;;;;;;15.35;9.13;;;16.60;99.90;;;;;;4992821;28;20041;-86
2023/07/24 03:54:23;;;;;;;14.45;9.32;;;16.60;99.90;;;;;;4975781;28;20053;-85
2023/07/24 03:56:49;;;;;;;15.88;8.93;;;16.60;99.90;;;;;;4991884;28;20041;-85
2023/07/24 03:59:14;;;;;;;15.20;9.32;;;16.60;99.90;;;;;;4992722;28;20386;-85
2023/07/24 04:01:40;;;;;;;16.65;9.18;;;16.60;99.90;;;;;;4990886;28;20042;-85
2023/07/24 04:04:06;;;;;;;13.27;8.75;;;16.60;99.90;;;;;;5010559;28;20049;-85
2023/07/24 04:06:32;;;;;;;15.70;9.55;;;16.60;99.90;;;;;;4992703;28;20085;-85
2023/07/24 04:08:57;;;;;;;19.05;11.20;;;16.70;99.90;;;;;;4991467;28;20099;-85
2023/07/24 04:11:23;;;;;;;15.45;10.07;;;16.70;99.90;;;;;;4992129;28;20046;-86
2023/07/24 04:13:49;;;;;;;15.60;9.30;;;16.70;99.90;;;;;;4976490;28;20085;-85
2023/07/24 04:16:14;;;;;;;15.70;9.50;;;16.70;99.90;;;;;;4991632;28;20056;-85
2023/07/24 04:18:40;;;;;;;17.25;9.20;;;16.70;99.90;;;;;;4975501;28;20061;-85
2023/07/24 04:21:06;;;;;;;15.40;9.45;;;16.70;99.90;;;;;;4991544;28;20038;-85
2023/07/24 04:23:31;;;;;;;13.90;8.55;;;16.70;99.90;;;;;;4992130;28;20045;-85
2023/07/24 04:25:57;;;;;;;13.15;9.05;;;16.70;99.90;;;;;;5009541;28;20077;-85
2023/07/24 04:28:23;;;;;;;12.65;7.88;;;16.70;99.90;;;;;;4975150;28;20037;-86
2023/07/24 04:30:49;;;;;;;13.25;8.93;;;16.70;99.90;;;;;;4991343;28;20049;-85
2023/07/24 04:33:14;;;;;;;14.05;9.30;;;16.70;99.90;;;;;;4990076;28;20041;-85
2023/07/24 04:35:40;;;;;;;14.15;9.02;;;16.70;99.90;;;;;;4990267;28;20498;-85
2023/07/24 04:38:06;;;;;;;11.52;9.25;;;16.70;99.90;;;;;;4989572;28;20046;-86
2023/07/24 04:40:33;;;;;;;15.82;9.60;;;16.70;99.90;;;;;;4989040;28;20042;-86
2023/07/24 04:42:58;;;;;;;13.65;9.38;;;16.70;99.90;;;;;;4989661;28;20053;-85
2023/07/24 04:45:24;;;;;;;14.80;9.73;;;16.70;99.90;;;;;;4989790;28;20038;-85
2023/07/24 04:47:50;;;;;;;14.73;9.93;;;16.70;99.90;;;;;;4973776;28;20413;-86
2023/07/24 04:50:15;;;;;;;13.73;9.90;;;16.70;99.90;;;;;;4989786;28;20203;-85
2023/07/24 04:52:41;;;;;;;15.82;10.80;;;16.70;99.90;;;;;;4972866;28;20056;-85
2023/07/24 04:55:07;;;;;;;14.70;10.32;;;16.70;99.90;;;;;;4992180;28;20048;-85
2023/07/24 04:57:32;;;;;;;15.88;11.20;;;16.70;99.90;;;;;;4973602;28;20041;-85
2023/07/24 04:59:58;;;;;;;17.00;9.73;;;16.70;99.90;;;;;;4992148;28;20042;-85
2023/07/24 05:02:24;;;;;;;14.10;10.38;;;16.80;99.90;;;;;;4974859;28;20045;-85
2023/07/24 05:04:50;;;;;;;16.73;11.15;;;16.80;99.90;;;;;;4974209;28;20050;-85
2023/07/24 05:07:15;;;;;;;22.35;11.95;;;16.80;99.90;;;;;;4991372;28;20049;-86
2023/07/24 05:09:41;;;;;;;16.48;11.05;;;16.80;99.90;;;;;;4991150;28;20065;-85
2023/07/24 05:12:07;;;;;;;14.60;11.30;;;16.80;99.90;;;;;;4990521;28;20469;-85
2023/07/24 05:14:33;;;;;;;17.15;12.18;;;16.80;99.90;;;;;;4975705;28;20038;-85
2023/07/24 05:16:58;;;;;;;17.45;12.23;;;16.90;99.90;;;;;;4971735;28;20470;-85
2023/07/24 05:19:24;;;;;;;14.43;11.05;;;16.80;99.90;;;;;;4990545;28;20038;-85
2023/07/24 05:21:50;;;;;;;16.08;11.18;;;16.90;99.90;;;;;;4990505;28;20084;-85
2023/07/24 05:24:16;;;;;;;14.63;10.13;;;17.00;99.90;;;;;;4974868;28;20057;-84
2023/07/24 05:26:41;;;;;;;15.60;11.27;;;17.00;99.90;;;;;;4989997;28;20512;-85
2023/07/24 05:29:07;;;;;;;19.38;11.40;;;17.00;99.90;;;;;;5008937;28;20124;-85
2023/07/24 05:31:35;;;;;;;19.92;11.05;;;17.10;99.90;;;;;;4989747;28;20509;-85
2023/07/24 05:34:01;;;;;;;13.43;10.90;;;17.10;99.90;;;;;;4974723;28;20117;-85
2023/07/24 05:36:26;;;;;;;12.77;10.30;;;17.20;99.90;;;;;;4990402;28;20042;-85
2023/07/24 05:38:53;;;;;;;18.27;9.63;;;17.20;99.90;;;;;;5008161;28;20133;-85
2023/07/24 05:41:18;;;;;;;16.77;9.48;;;17.30;99.90;;;;;;4974006;28;20183;-84
2023/07/24 05:43:44;;;;;;;13.27;9.25;;;17.40;99.90;;;;;;4991007;28;20740;-85
2023/07/24 05:46:10;;;;;;;16.45;9.55;;;17.40;99.90;;;;;;4973246;28;20153;-85
2023/07/24 05:48:35;;;;;;;15.02;9.50;;;17.50;99.90;;;;;;4991198;28;20050;-86
2023/07/24 05:51:01;;;;;;;11.60;8.30;;;17.50;99.90;;;;;;4974671;28;20049;-85
2023/07/24 05:53:27;;;;;;;11.88;8.18;;;17.60;99.90;;;;;;4990012;28;20058;-85
2023/07/24 05:56:02;;;;;;;11.60;8.40;;;17.60;99.90;;;;;;4990351;28;20062;-85
2023/07/24 05:58:28;;;;;;;13.02;9.23;;;17.60;99.90;;;;;;4990765;28;20046;-85
2023/07/24 06:00:55;;;;;;;15.57;8.93;;;17.60;99.90;;;;;;5007146;28;20057;-85
2023/07/24 06:03:24;;;;;;;12.65;9.00;;;17.50;99.90;;;;;;4974595;28;20529;-86
2023/07/24 06:05:54;;;;;;;15.68;9.00;;;17.50;99.90;;;;;;4973645;28;20088;-85
2023/07/24 06:08:20;;;;;;;13.45;8.75;;;17.50;99.90;;;;;;4989863;28;20116;-85
2023/07/24 06:10:50;;;;;;;12.45;8.45;;;17.50;99.90;;;;;;4973815;28;20494;-85
2023/07/24 06:13:16;;;;;;;14.93;9.05;;;17.50;99.90;;;;;;4974427;28;20050;-85
2023/07/24 06:15:42;;;;;;;16.23;8.90;;;17.50;99.90;;;;;;4972877;28;20447;-84
2023/07/24 06:18:08;;;;;;;14.80;9.02;;;17.40;99.90;;;;;;4974156;28;20473;-86
2023/07/24 06:20:34;;;;;;;12.57;8.75;;;17.40;99.90;;;;;;5007434;28;20505;-85
2023/07/24 06:23:00;;;;;;;14.70;9.32;;;17.40;99.90;;;;;;4974120;28;20038;-85
2023/07/24 06:25:26;;;;;;;11.55;8.55;;;17.50;99.90;;;;;;4973659;28;20042;-85
2023/07/24 06:27:51;;;;;;;12.77;8.73;;;17.60;99.90;;;;;;4986369;28;20050;-85
2023/07/24 06:30:17;;;;;;;13.27;8.23;;;17.70;99.90;;;;;;4990241;28;20116;-85
2023/07/24 06:32:43;;;;;;;13.10;8.65;;;17.80;99.90;;;;;;4989650;28;20592;-85
2023/07/24 06:35:09;;;;;;;14.95;9.18;;;17.80;99.90;;;;;;4973527;28;20034;-85
2023/07/24 06:37:34;;;;;;;15.88;8.95;;;17.80;99.90;;;;;;4989578;28;20406;-85
2023/07/24 06:40:00;;;;;;;13.50;9.07;;;18.00;99.90;;;;;;4973466;28;20567;-85
2023/07/24 06:42:26;;;;;;;15.25;9.10;;;18.00;99.90;;;;;;4972069;28;20046;-85
2023/07/24 06:44:52;;;;;;;13.32;9.55;;;18.00;99.90;;;;;;4973676;28;20505;-85
2023/07/24 06:47:17;;;;;;;15.05;9.77;;;18.00;99.90;;;;;;4973676;28;20104;-85
2023/07/24 06:49:43;;;;;;;13.25;8.07;;;18.00;99.90;;;;;;4971941;28;20046;-85
2023/07/24 06:52:09;;;;;;;10.77;7.72;;;18.00;99.90;;;;;;4977316;28;20176;-85
2023/07/24 06:54:34;;;;;;;12.68;7.93;;;18.10;99.90;;;;;;4985918;28;20517;-85
2023/07/24 06:57:00;;;;;;;11.85;7.75;;;18.10;99.90;;;;;;4981872;28;20297;-85
2023/07/24 06:59:26;;;;;;;15.10;8.80;;;18.20;99.90;;;;;;4989901;28;20056;-85
2023/07/24 07:01:51;;;;;;;16.95;8.27;;;18.20;99.90;;;;;;4988178;28;20052;-86
2023/07/24 07:04:17;;;;;;;13.38;8.02;;;18.20;99.90;;;;;;4973182;28;20042;-85
2023/07/24 07:06:43;;;;;;;13.20;7.95;;;18.30;99.90;;;;;;4972387;28;20129;-85
2023/07/24 07:09:08;;;;;;;13.85;7.68;;;18.30;99.90;;;;;;5007320;28;20034;-85
2023/07/24 07:11:35;;;;;;;15.13;7.72;;;18.40;99.90;;;;;;4972221;28;20050;-86
2023/07/24 07:14:00;;;;;;;14.38;7.93;;;18.40;99.90;;;;;;4989146;28;20082;-85
2023/07/24 07:16:26;;;;;;;16.48;8.43;;;18.50;99.90;;;;;;4989391;28;20528;-85
2023/07/24 07:18:52;;;;;;;20.05;8.27;;;18.60;99.90;;;;;;5006430;28;20115;-85
2023/07/24 07:21:17;;;;;;;20.50;8.07;;;18.60;99.90;;;;;;4989479;28;20037;-85
2023/07/24 07:23:43;;;;;;;16.70;8.52;;;18.70;99.90;;;;;;4989475;28;20056;-85
2023/07/24 07:26:09;;;;;;;16.85;8.90;;;18.80;99.90;;;;;;4988274;28;20073;-85
2023/07/24 07:28:35;;;;;;;15.73;9.25;;;18.80;99.90;;;;;;4973050;28;20042;-85
2023/07/24 07:31:00;;;;;;;15.38;8.82;;;18.80;99.90;;;;;;4971720;28;20057;-85
2023/07/24 07:33:26;;;;;;;11.98;7.75;;;18.90;99.90;;;;;;4989297;28;20125;-85
2023/07/24 07:35:52;;;;;;;14.35;7.45;;;18.90;99.90;;;;;;4989407;28;20439;-86
2023/07/24 07:38:17;;;;;;;15.77;8.73;;;18.90;99.90;;;;;;4988598;28;20033;-85
2023/07/24 07:40:43;;;;;;;18.77;7.93;;;19.00;99.90;;;;;;4988511;28;20632;-85
2023/07/24 07:43:09;;;;;;;17.40;7.93;;;19.00;99.90;;;;;;5007453;28;20038;-86
2023/07/24 07:45:34;;;;;;;14.75;7.75;;;19.00;99.90;;;;;;4987934;28;20478;-87
2023/07/24 07:48:00;;;;;;;16.85;7.85;;;19.10;99.90;;;;;;4973269;28;20073;-86
2023/07/24 07:50:26;;;;;;;17.42;7.38;;;19.10;99.90;;;;;;5007062;28;20056;-86
2023/07/24 07:52:52;;;;;;;16.58;7.47;;;19.20;99.90;;;;;;5006522;28;20045;-85
2023/07/24 07:55:19;;;;;;;14.02;8.23;;;19.20;99.90;;;;;;4989581;28;20458;-84
2023/07/24 07:57:44;;;;;;;17.80;8.13;;;19.30;99.90;;;;;;4987960;28;20046;-85
2023/07/24 08:00:11;;;;;;;15.90;7.25;;;19.40;99.90;;;;;;5006351;28;20116;-85
2023/07/24 08:02:44;;;;;;;14.70;7.22;;;19.50;99.90;;;;;;5008606;28;20053;-96
2023/07/24 08:05:11;;;;;;;13.18;7.55;;;19.40;99.90;;;;;;4992162;28;20057;-91
2023/07/24 08:07:40;;;;;;;17.08;7.75;;;19.50;99.90;;;;;;4991874;28;20034;-91
2023/07/24 08:10:08;;;;;;;13.00;7.30;;;19.50;99.90;;;;;;4976165;28;20050;-93
2023/07/24 08:12:34;;;;;;;12.02;6.90;;;19.60;99.90;;;;;;4975329;28;20046;-92
2023/07/24 08:15:00;;;;;;;14.65;7.43;;;19.60;99.90;;;;;;4978387;28;20112;-92
2023/07/24 08:17:26;;;;;;;14.32;7.00;;;19.70;99.90;;;;;;4977924;28;20057;-92
2023/07/24 08:19:52;;;;;;;16.23;7.93;;;19.70;99.90;;;;;;4978368;28;20046;-89
2023/07/24 08:22:19;;;;;;;15.93;7.07;;;19.70;99.90;;;;;;4994620;28;20384;-91
2023/07/24 08:24:45;;;;;;;17.45;8.23;;;19.70;99.90;;;;;;4978127;28;20054;-89
2023/07/24 08:27:11;;;;;;;21.77;7.88;;;19.70;99.90;;;;;;4993393;28;20092;-91
2023/07/24 08:29:38;;;;;;;12.68;6.55;;;19.80;99.90;;;;;;4978204;28;20081;-90
2023/07/24 08:32:04;;;;;;;13.80;6.60;;;19.80;99.90;;;;;;4977725;28;20560;-90
2023/07/24 08:34:30;;;;;;;17.17;7.68;;;19.80;99.90;;;;;;4992403;28;20120;-91
2023/07/24 08:36:56;;;;;;;17.10;7.57;;;19.80;99.90;;;;;;5005584;28;20137;-90
2023/07/24 08:39:24;;;;;;;15.35;7.68;;;19.80;99.90;;;;;;4994102;28;20060;-87
2023/07/24 08:41:50;;;;;;;13.98;6.53;;;19.80;99.90;;;;;;4963134;28;20042;-87
2023/07/24 08:44:16;;;;;;;11.75;6.75;;;19.90;99.90;;;;;;5010114;28;20417;-87
2023/07/24 08:46:45;;;;;;;13.93;6.40;;;20.00;99.90;;;;;;4975273;28;20045;-87
2023/07/24 08:49:14;;;;;;;14.65;6.28;;;20.00;99.90;;;;;;4975829;28;20128;-87
2023/07/24 08:51:41;;;;;;;13.75;6.43;;;20.00;99.90;;;;;;4991817;28;20053;-87
2023/07/24 08:54:09;;;;;;;15.40;6.13;;;20.00;99.90;;;;;;4976228;28;20045;-86
2023/07/24 08:56:37;;;;;;;13.43;6.15;;;19.90;99.90;;;;;;4974607;28;20124;-87
2023/07/24 08:59:02;;;;;;;14.65;6.70;;;19.90;99.90;;;;;;4976300;28;20048;-87
2023/07/24 09:01:28;;;;;;;19.38;6.35;;;19.90;99.90;;;;;;4992122;28;20034;-87
2023/07/24 09:03:54;;;;;;;20.33;7.22;;;20.00;99.90;;;;;;4991076;28;20045;-86
2023/07/24 09:06:20;;;;;;;17.35;7.00;;;20.00;99.90;;;;;;4975526;28;20474;-84
2023/07/24 09:08:45;;;;;;;14.52;6.43;;;20.00;99.90;;;;;;5009440;28;20046;-87
2023/07/24 09:11:14;;;;;;;13.95;7.18;;;19.90;99.90;;;;;;4977183;28;20076;-87
2023/07/24 09:13:42;;;;;;;14.88;6.63;;;19.90;99.90;;;;;;4975449;28;20104;-87
2023/07/24 09:16:09;;;;;;;14.20;6.57;;;20.00;99.90;;;;;;4975743;28;20046;-87
2023/07/24 09:18:44;;;;;;;19.40;6.97;;;20.00;99.90;;;;;;4991737;28;20049;-89
2023/07/24 09:21:13;;;;;;;12.88;6.43;;;20.20;99.90;;;;;;4992453;28;20125;-88
2023/07/24 09:23:43;;;;;;;16.85;7.05;;;20.30;99.90;;;;;;4990121;28;20042;-89
2023/07/24 09:26:09;;;;;;;13.35;6.43;;;20.50;99.90;;;;;;4992174;28;20353;-87
2023/07/24 09:28:36;;;;;;;15.70;7.13;;;20.60;99.90;;;;;;4991638;28;20069;-87
2023/07/24 09:31:02;;;;;;;12.13;7.50;;;20.80;99.90;;;;;;4990711;28;20459;-88
2023/07/24 09:33:36;;;;;;;18.55;8.40;;;20.80;99.90;;;;;;4975390;28;20406;-87
2023/07/24 09:36:03;;;;;;;18.70;8.80;;;20.70;99.90;;;;;;4975567;28;20125;-88
2023/07/24 09:38:29;;;;;;;23.58;9.07;;;20.60;99.90;;;;;;4974733;28;20041;-89
2023/07/24 09:40:56;;;;;;;18.52;8.68;;;20.50;99.90;;;;;;4992107;28;20104;-88
2023/07/24 09:43:27;;;;;;;18.92;8.43;;;20.60;99.90;;;;;;4972695;28;20108;-92
2023/07/24 09:45:54;;;;;;;13.77;7.38;;;20.70;99.90;;;;;;4991545;28;20046;-88
2023/07/24 09:48:23;;;;;;;13.13;6.97;;;20.90;99.90;;;;;;4975534;28;20533;-88
2023/07/24 09:50:54;;;;;;;18.52;7.72;;;21.20;99.90;;;;;;4975051;28;20100;-87
2023/07/24 09:53:43;;;;;;;13.73;7.53;;;21.40;99.90;;;;;;5008884;28;20048;-88
2023/07/24 09:56:10;;;;;;;15.68;7.05;;;21.30;99.90;;;;;;4986340;28;20060;-88
2023/07/24 09:58:37;;;;;;;13.57;6.95;;;21.20;99.90;;;;;;4975031;28;20353;-87
2023/07/24 10:01:05;;;;;;;14.40;6.53;;;21.30;99.90;;;;;;4974887;28;20046;-88
2023/07/24 10:03:54;;;;;;;12.05;7.10;;;21.50;99.90;;;;;;4975804;28;20844;-87
2023/07/24 10:06:20;;;;;;;19.30;7.40;;;21.80;99.90;;;;;;4980944;28;20073;-87
2023/07/24 10:08:46;;;;;;;17.90;6.47;;;22.20;99.90;;;;;;4975260;28;20049;-88
2023/07/24 10:11:13;;;;;;;15.15;6.78;;;22.50;99.90;;;;;;4975316;28;20335;-87
2023/07/24 10:13:40;;;;;;;12.82;6.28;;;22.70;99.90;;;;;;4973903;28;20056;-89
2023/07/24 10:16:06;;;;;;;16.38;7.10;;;22.60;99.90;;;;;;4991074;28;20052;-86
2023/07/24 10:18:35;;;;;;;14.32;7.63;;;22.70;99.90;;;;;;4998221;28;20127;-87
2023/07/24 10:21:05;;;;;;;9.32;6.95;;;22.70;99.90;;;;;;4984624;28;20042;-85
2023/07/24 10:23:33;;;;;;;16.05;7.80;;;23.00;99.90;;;;;;4986497;28;20073;-84
2023/07/24 10:26:04;;;;;;;10.90;6.35;;;23.10;99.90;;;;;;4973395;28;20045;-84
2023/07/24 10:28:32;;;;;;;11.18;6.38;;;23.10;99.90;;;;;;4989020;28;20042;-85
2023/07/24 10:30:58;;;;;;;12.60;6.85;;;23.30;99.90;;;;;;4989365;28;20054;-85
2023/07/24 10:33:24;;;;;;;13.13;5.95;;;23.50;99.90;;;;;;4972691;28;20038;-85
2023/07/24 10:36:08;;;;;;;10.25;5.68;;;23.60;99.90;;;;;;4988567;28;20073;-84
2023/07/24 10:38:36;;;;;;;10.23;5.93;;;23.60;99.90;;;;;;5002377;28;20042;-85
2023/07/24 10:41:04;;;;;;;13.13;5.80;;;23.50;99.90;;;;;;4975792;28;20145;-85
2023/07/24 10:43:52;;;;;;;13.90;6.03;;;23.20;99.90;;;;;;4985833;28;20034;-85
2023/07/24 10:46:20;;;;;;;14.70;7.45;;;23.00;99.90;;;;;;4970998;28;20439;-85
2023/07/24 10:48:47;;;;;;;11.02;5.68;;;22.80;99.90;;;;;;5005598;28;20049;-84
2023/07/24 10:51:16;;;;;;;10.48;5.93;;;22.80;99.90;;;;;;4972501;28;20065;-84
2023/07/24 10:53:48;;;;;;;13.77;6.00;;;22.90;99.90;;;;;;4988890;28;20088;-83
2023/07/24 10:56:15;;;;;;;11.38;5.30;;;23.00;99.90;;;;;;4994656;28;20494;-84
2023/07/24 10:58:41;;;;;;;12.32;5.30;;;23.20;99.90;;;;;;4988172;28;20065;-84
2023/07/24 11:01:08;;;;;;;12.73;5.90;;;23.30;99.90;;;;;;4986126;28;20034;-84
2023/07/24 11:03:39;;;;;;;8.50;4.72;;;23.20;99.90;;;;;;5000872;28;20049;-83
2023/07/24 11:06:11;;;;;;;12.20;5.22;;;23.10;99.90;;;;;;4973533;28;20474;-85
2023/07/24 11:08:40;;;;;;;11.80;5.30;;;23.00;99.90;;;;;;4988906;28;20038;-85
2023/07/24 11:11:07;;;;;;;8.85;3.72;;;23.00;99.90;;;;;;4987892;28;20054;-82
2023/07/24 11:13:34;;;;;;;8.63;4.18;;;23.10;99.90;;;;;;4972422;28;20434;-84
2023/07/24 11:16:05;;;;;;;9.70;3.67;;;22.80;99.90;;;;;;4987075;28;20150;-82
2023/07/24 11:18:31;;;;;;;8.77;3.65;;;22.60;99.90;;;;;;5005361;28;20054;-82
2023/07/24 11:20:57;;;;;;;10.32;3.78;;;22.40;99.90;;;;;;5006857;28;20046;-83
2023/07/24 11:23:24;;;;;;;12.98;4.20;;;22.20;99.90;;;;;;5005632;28;20122;-84
2023/07/24 11:25:54;;;;;;;10.98;4.00;;;22.10;99.90;;;;;;4989393;28;20100;-85
2023/07/24 11:28:20;;;;;;;11.48;3.60;;;21.90;99.90;;;;;;4971143;28;20041;-87
2023/07/24 11:30:46;;;;;;;12.93;3.42;;;21.70;99.90;;;;;;4986650;28;20053;-85
2023/07/24 11:33:16;;;;;;;12.68;3.60;;;21.70;99.90;;;;;;4971850;28;20048;-85
2023/07/24 11:35:42;;;;;;;12.60;3.92;;;21.70;99.90;;;;;;5004974;28;20050;-84
2023/07/24 11:38:09;;;;;;;10.40;4.25;;;21.80;99.90;;;;;;4987373;28;20037;-86
2023/07/24 11:40:41;;;;;;;9.65;4.25;;;21.80;99.90;;;;;;5003779;28;20042;-86
2023/07/24 11:43:17;;;;;;;6.75;3.95;;;21.70;99.90;;;;;;4988001;28;20046;-86
2023/07/24 11:45:44;;;;;;;10.68;4.75;;;21.70;99.90;;;;;;4987350;28;20072;-85
2023/07/24 11:48:11;;;;;;;9.38;4.65;;;21.70;99.90;;;;;;4976469;28;20050;-83
2023/07/24 11:50:52;;;;;;;13.25;4.72;;;21.80;99.90;;;;;;4992787;28;20120;-84
2023/07/24 11:53:29;;;;;;;12.18;5.25;;;21.90;99.90;;;;;;5003966;28;20120;-85
2023/07/24 11:55:57;;;;;;;10.13;5.07;;;22.10;99.90;;;;;;4991766;28;20383;-86
2023/07/24 11:58:26;;;;;;;10.70;4.75;;;22.40;99.90;;;;;;4976015;28;20053;-85
2023/07/24 12:00:53;;;;;;;10.20;4.65;;;22.80;99.90;;;;;;4992089;28;20045;-85
2023/07/24 12:03:24;;;;;;;9.32;4.72;;;23.20;99.90;;;;;;5010728;28;20042;-86
2023/07/24 12:05:50;;;;;;;11.20;4.97;;;23.40;99.90;;;;;;5009580;28;20068;-84
2023/07/24 12:08:18;;;;;;;12.10;4.75;;;23.50;99.90;;;;;;5010881;28;20057;-84
2023/07/24 12:10:44;;;;;;;10.35;4.68;;;23.50;99.90;;;;;;4975170;28;20504;-84
2023/07/24 12:13:10;;;;;;;11.32;4.80;;;23.40;99.90;;;;;;4992303;28;20041;-84
2023/07/24 12:15:37;;;;;;;9.25;4.95;;;23.30;99.90;;;;;;4975557;28;20044;-84
2023/07/24 12:18:04;;;;;;;10.77;4.50;;;23.40;99.90;;;;;;4977303;28;20053;-85
2023/07/24 12:20:31;;;;;;;9.38;3.67;;;23.40;99.90;;;;;;4975207;28;20481;-84
2023/07/24 12:22:57;;;;;;;13.02;4.03;;;23.30;99.90;;;;;;5010739;28;20175;-84
2023/07/24 12:25:24;;;;;;;9.40;4.00;;;23.20;99.90;;;;;;4992420;28;20228;-85
2023/07/24 12:27:50;;;;;;;9.57;3.70;;;23.00;99.90;;;;;;5009158;28;20045;-86
2023/07/24 12:30:16;;;;;;;19.33;4.70;;;22.80;99.90;;;;;;4976328;28;20045;-85
2023/07/24 12:32:42;;;;;;;9.05;4.18;;;22.60;99.90;;;;;;4975529;28;20533;-86
2023/07/24 12:35:10;;;;;;;6.15;3.13;;;22.30;99.90;;;;;;4991751;28;20524;-85